createdAt,value
2022-08-12T00:02:04.213Z,99624.44
2022-08-12T00:04:10.590Z,99624.56
2022-08-12T00:06:32.054Z,99622.00
2022-08-12T00:08:55.329Z,99627.47
2022-08-12T00:11:16.989Z,99622.84
2022-08-12T00:13:37.642Z,99619.53
2022-08-12T00:16:00.959Z,99621.53
2022-08-12T00:18:22.904Z,99621.25
2022-08-12T00:20:43.503Z,99621.53
2022-08-12T00:23:04.272Z,99618.06
2022-08-12T00:26:05.409Z,99621.22
2022-08-12T00:28:06.375Z,99624.53
2022-08-12T00:30:28.457Z,99621.66
2022-08-12T00:32:54.296Z,99619.19
2022-08-12T00:35:15.537Z,99619.63
2022-08-12T00:37:37.675Z,99617.28
2022-08-12T00:39:58.721Z,99613.69
2022-08-12T00:42:10.607Z,99614.19
2022-08-12T00:44:15.729Z,99612.03
2022-08-12T00:46:32.637Z,99601.22
2022-08-12T00:48:35.202Z,99605.22
2022-08-12T00:50:40.805Z,99611.00
2022-08-12T00:52:45.118Z,99611.00
2022-08-12T00:54:48.453Z,99608.38
2022-08-12T00:56:51.156Z,99608.53
2022-08-12T00:58:54.740Z,99609.53
2022-08-12T01:01:06.710Z,99602.56
2022-08-12T01:03:14.946Z,99601.13
2022-08-12T01:05:38.277Z,99606.16
2022-08-12T01:07:59.993Z,99603.16
2022-08-12T01:10:27.597Z,99604.75
2022-08-12T01:12:38.253Z,99597.22
2022-08-12T01:14:41.503Z,99600.19
2022-08-12T01:16:43.973Z,99598.31
2022-08-12T01:18:46.060Z,99597.59
2022-08-12T01:21:12.023Z,99598.81
2022-08-12T01:23:29.110Z,99603.34
2022-08-12T01:25:55.609Z,99592.78
2022-08-12T01:28:00.481Z,99595.69
2022-08-12T01:30:06.682Z,99603.44
2022-08-12T01:32:12.051Z,99593.22
2022-08-12T01:34:35.827Z,99596.56
2022-08-12T01:36:53.392Z,99597.41
2022-08-12T01:38:59.384Z,99587.66
2022-08-12T01:41:03.343Z,99591.00
2022-08-12T01:43:16.870Z,99589.53
2022-08-12T01:45:24.711Z,99588.91
2022-08-12T01:47:35.154Z,99585.53
2022-08-12T01:50:05.478Z,99587.97
2022-08-12T01:52:21.733Z,99584.78
2022-08-12T01:54:26.402Z,99579.59
2022-08-12T01:56:54.395Z,99580.47
2022-08-12T01:59:19.831Z,99581.59
2022-08-12T02:01:30.522Z,99575.88
2022-08-12T02:04:10.374Z,99568.56
2022-08-12T02:06:45.132Z,99568.88
2022-08-12T02:09:12.989Z,99566.75
2022-08-12T02:11:25.833Z,99572.03
2022-08-12T02:14:04.325Z,99577.38
2022-08-12T02:16:30.476Z,99567.69
2022-08-12T02:19:25.782Z,99572.91
2022-08-12T02:21:51.991Z,99563.69
2022-08-12T02:23:54.063Z,99560.94
2022-08-12T02:26:01.438Z,99572.47
2022-08-12T02:28:05.937Z,99566.69
2022-08-12T02:30:12.347Z,99568.81
2022-08-12T02:32:15.552Z,99574.19
2022-08-12T02:34:17.735Z,99579.94
2022-08-12T02:36:19.648Z,99574.06
2022-08-12T02:38:25.319Z,99572.91
2022-08-12T02:40:29.077Z,99575.50
2022-08-12T02:42:34.249Z,99572.91
2022-08-12T02:44:40.405Z,99568.41
2022-08-12T02:46:50.413Z,99574.75
2022-08-12T02:48:53.581Z,99576.63
2022-08-12T02:51:02.028Z,99576.63
2022-08-12T02:53:05.195Z,99577.94
2022-08-12T02:55:28.882Z,99577.47
2022-08-12T02:57:36.988Z,99577.72
2022-08-12T02:59:41.385Z,99587.50
2022-08-12T03:01:48.756Z,99583.16
2022-08-12T03:03:55.981Z,99585.56
2022-08-12T03:06:03.522Z,99588.41
2022-08-12T03:08:12.144Z,99586.09
2022-08-12T03:10:36.490Z,99583.50
2022-08-12T03:12:51.064Z,99585.63
2022-08-12T03:14:55.161Z,99586.50
2022-08-12T03:17:11.803Z,99590.75
2022-08-12T03:19:14.022Z,99594.09
2022-08-12T03:21:54.704Z,99590.03
2022-08-12T03:23:42.018Z,99589.69
2022-08-12T03:25:44.747Z,99590.56
2022-08-12T03:27:56.178Z,99588.69
2022-08-12T03:29:59.744Z,99602.66
2022-08-12T03:32:03.846Z,99596.09
2022-08-12T03:34:12.696Z,99595.13
2022-08-12T03:36:20.688Z,99595.19
2022-08-12T03:38:28.382Z,99594.34
2022-08-12T03:41:00.265Z,99595.84
2022-08-12T03:43:25.631Z,99592.56
2022-08-12T03:45:52.155Z,99596.81
2022-08-12T03:48:38.454Z,99592.31
2022-08-12T03:50:59.460Z,99596.16
2022-08-12T03:53:21.727Z,99590.75
2022-08-12T03:55:42.429Z,99595.09
2022-08-12T03:58:02.965Z,99593.97
2022-08-12T04:00:24.888Z,99588.28
2022-08-12T04:02:27.044Z,99592.47
2022-08-12T04:04:34.829Z,99593.03
2022-08-12T04:06:45.283Z,99597.88
2022-08-12T04:08:57.554Z,99592.41
2022-08-12T04:11:17.925Z,99592.94
2022-08-12T04:13:24.060Z,99598.19
2022-08-12T04:15:27.970Z,99592.19
2022-08-12T04:17:31.357Z,99595.03
2022-08-12T04:19:33.226Z,99587.00
2022-08-12T04:21:36.394Z,99581.00
2022-08-12T04:23:48.403Z,99588.22
2022-08-12T04:25:50.662Z,99592.03
2022-08-12T04:27:52.623Z,99587.09
2022-08-12T04:30:31.073Z,99583.44
2022-08-12T04:32:16.707Z,99584.19
2022-08-12T04:34:19.037Z,99583.28
2022-08-12T04:36:20.853Z,99582.00
2022-08-12T04:38:23.608Z,99585.34
2022-08-12T04:40:28.223Z,99595.09
2022-08-12T04:42:31.132Z,99595.91
2022-08-12T04:44:33.205Z,99594.97
2022-08-12T04:46:36.176Z,99601.97
2022-08-12T04:48:38.087Z,99606.66
2022-08-12T04:50:40.782Z,99598.94
2022-08-12T04:52:43.411Z,99609.50
2022-08-12T04:54:47.629Z,99603.34
2022-08-12T04:57:03.286Z,99602.38
2022-08-12T04:59:07.904Z,99598.97
2022-08-12T05:01:10.641Z,99600.13
2022-08-12T05:03:12.519Z,99601.78
2022-08-12T05:05:20.296Z,99602.13
2022-08-12T05:07:24.148Z,99605.59
2022-08-12T05:09:26.460Z,99606.94
2022-08-12T05:11:53.715Z,99610.28
2022-08-12T05:14:00.412Z,99606.88
2022-08-12T05:16:05.393Z,99607.06
2022-08-12T05:18:19.268Z,99614.59
2022-08-12T05:20:25.961Z,99608.66
2022-08-12T05:22:27.962Z,99613.09
2022-08-12T05:24:29.811Z,99612.09
2022-08-12T05:26:31.591Z,99611.56
2022-08-12T05:28:33.703Z,99614.59
2022-08-12T05:30:36.038Z,99614.31
2022-08-12T05:32:37.977Z,99615.47
2022-08-12T05:34:39.724Z,99621.25
2022-08-12T05:36:44.100Z,99619.94
2022-08-12T05:38:56.653Z,99618.38
2022-08-12T05:40:59.022Z,99618.50
2022-08-12T05:43:00.958Z,99621.69
2022-08-12T05:45:02.750Z,99625.91
2022-08-12T05:47:05.390Z,99627.31
2022-08-12T05:49:09.229Z,99634.38
2022-08-12T05:51:11.486Z,99623.84
2022-08-12T05:53:13.488Z,99628.47
2022-08-12T05:55:15.725Z,99622.81
2022-08-12T05:57:18.024Z,99623.38
2022-08-12T05:59:21.965Z,99627.28
2022-08-12T06:02:09.913Z,99629.53
2022-08-12T06:03:47.713Z,99626.16
2022-08-12T06:05:54.424Z,99623.91
2022-08-12T06:08:01.817Z,99630.28
2022-08-12T06:10:04.987Z,99625.13
2022-08-12T06:12:07.481Z,99630.75
2022-08-12T06:14:11.950Z,99621.47
2022-08-12T06:16:18.225Z,99629.38
2022-08-12T06:18:20.077Z,99636.00
2022-08-12T06:20:28.419Z,99635.03
2022-08-12T06:22:31.933Z,99635.84
2022-08-12T06:24:33.862Z,99632.94
2022-08-12T06:26:35.687Z,99639.25
2022-08-12T06:28:39.518Z,99641.91
2022-08-12T06:30:41.426Z,99637.03
2022-08-12T06:32:47.543Z,99634.69
2022-08-12T06:35:23.889Z,99632.72
2022-08-12T06:37:11.251Z,99642.72
2022-08-12T06:39:15.294Z,99639.25
2022-08-12T06:41:36.409Z,99645.16
2022-08-12T06:44:06.745Z,99632.16
2022-08-12T06:46:06.224Z,99638.84
2022-08-12T06:48:08.588Z,99637.22
2022-08-12T06:50:15.926Z,99635.28
2022-08-12T06:52:19.316Z,99632.28
2022-08-12T06:54:31.204Z,99623.78
2022-08-12T06:57:02.491Z,99625.56
2022-08-12T06:58:57.979Z,99629.38
2022-08-12T07:01:00.459Z,99633.75
2022-08-12T07:03:16.438Z,99630.09
2022-08-12T07:05:25.799Z,99631.66
2022-08-12T07:07:27.936Z,99639.69
2022-08-12T07:10:01.226Z,99633.13
2022-08-12T07:11:51.506Z,99632.47
2022-08-12T07:14:11.406Z,99630.59
2022-08-12T07:16:17.424Z,99628.53
2022-08-12T07:18:22.066Z,99618.34
2022-08-12T07:20:50.845Z,99627.19
2022-08-12T07:22:45.680Z,99622.75
2022-08-12T07:25:07.943Z,99627.41
2022-08-12T07:27:09.900Z,99627.56
2022-08-12T07:29:11.811Z,99627.56
2022-08-12T07:31:17.191Z,99629.47
2022-08-12T07:33:24.303Z,99626.19
2022-08-12T07:35:27.781Z,99619.63
2022-08-12T07:37:29.845Z,99627.53
2022-08-12T07:39:31.733Z,99629.66
2022-08-12T07:41:33.668Z,99633.44
2022-08-12T07:43:39.261Z,99626.00
2022-08-12T07:45:41.386Z,99627.91
2022-08-12T07:47:43.683Z,99622.88
2022-08-12T07:50:05.777Z,99619.63
2022-08-12T07:52:08.119Z,99616.66
2022-08-12T07:54:11.717Z,99618.22
2022-08-12T07:56:13.481Z,99615.78
2022-08-12T07:58:15.611Z,99620.09
2022-08-12T08:00:18.435Z,99612.78
2022-08-12T08:02:20.500Z,99607.56
2022-08-12T08:04:47.186Z,99618.44
2022-08-12T08:06:49.528Z,99618.38
2022-08-12T08:08:51.460Z,99609.69
2022-08-12T08:11:16.044Z,99610.28
2022-08-12T08:13:18.762Z,99611.88
2022-08-12T08:15:51.063Z,99607.38
2022-08-12T08:17:59.660Z,99617.47
2022-08-12T08:20:03.324Z,99618.75
2022-08-12T08:22:06.501Z,99613.66
2022-08-12T08:24:14.682Z,99613.19
2022-08-12T08:26:17.908Z,99616.59
2022-08-12T08:28:21.292Z,99607.88
2022-08-12T08:30:23.965Z,99599.28
2022-08-12T08:32:26.034Z,99599.72
2022-08-12T08:34:54.517Z,99599.78
2022-08-12T08:36:52.935Z,99607.66
2022-08-12T08:38:57.742Z,99598.38
2022-08-12T08:42:19.375Z,99603.19
2022-08-12T08:43:44.244Z,99596.00
2022-08-12T08:45:48.491Z,99594.28
2022-08-12T08:47:51.722Z,99599.25
2022-08-12T08:49:54.835Z,99595.31
2022-08-12T08:51:56.779Z,99597.91
2022-08-12T08:53:58.844Z,99591.13
2022-08-12T08:56:05.168Z,99585.84
2022-08-12T08:58:08.911Z,99596.94
2022-08-12T09:00:19.003Z,99592.50
2022-08-12T09:02:20.956Z,99597.56
2022-08-12T09:05:12.014Z,99594.31
2022-08-12T09:06:53.372Z,99587.13
2022-08-12T09:08:56.357Z,99590.56
2022-08-12T09:12:06.845Z,99592.47
2022-08-12T09:14:11.792Z,99589.34
2022-08-12T09:16:02.637Z,99588.06
2022-08-12T09:18:08.721Z,99588.31
2022-08-12T09:20:16.099Z,99590.50
2022-08-12T09:22:18.865Z,99592.09
2022-08-12T09:24:22.723Z,99585.34
2022-08-12T09:26:30.655Z,99586.75
2022-08-12T09:28:33.522Z,99580.72
2022-08-12T09:30:41.010Z,99589.72
2022-08-12T09:33:04.226Z,99581.47
2022-08-12T09:35:18.681Z,99573.22
2022-08-12T09:37:26.773Z,99580.16
2022-08-12T09:40:05.883Z,99573.06
2022-08-12T09:42:40.433Z,99574.84
2022-08-12T09:45:19.299Z,99571.63
2022-08-12T09:47:15.136Z,99571.81
2022-08-12T09:49:17.275Z,99570.34
2022-08-12T09:51:37.406Z,99566.97
2022-08-12T09:53:40.963Z,99566.81
2022-08-12T09:56:07.334Z,99567.13
2022-08-12T09:58:58.510Z,99564.56
2022-08-12T10:00:40.217Z,99553.44
2022-08-12T10:03:05.642Z,99563.69
2022-08-12T10:05:14.007Z,99566.75
2022-08-12T10:07:25.254Z,99565.16
2022-08-12T10:09:28.711Z,99563.47
2022-08-12T10:12:41.761Z,99559.25
2022-08-12T10:14:50.331Z,99550.66
2022-08-12T10:16:55.714Z,99548.91
2022-08-12T10:19:02.036Z,99559.66
2022-08-12T10:21:10.587Z,99543.88
2022-08-12T10:23:12.551Z,99544.97
2022-08-12T10:26:35.749Z,99546.53
2022-08-12T10:28:33.196Z,99542.47
2022-08-12T10:30:41.458Z,99548.50
2022-08-12T10:32:58.562Z,99535.63
2022-08-12T10:35:01.064Z,99539.34
2022-08-12T10:37:22.746Z,99537.97
2022-08-12T10:40:06.846Z,99536.91
2022-08-12T10:42:09.442Z,99537.22
2022-08-12T10:44:17.465Z,99538.94
2022-08-12T10:46:21.021Z,99537.31
2022-08-12T10:48:33.338Z,99528.81
2022-08-12T10:51:01.917Z,99535.94
2022-08-12T10:52:58.025Z,99537.41
2022-08-12T10:55:00.573Z,99527.97
2022-08-12T10:57:03.063Z,99525.50
2022-08-12T10:59:10.496Z,99526.78
2022-08-12T11:01:49.575Z,99525.91
2022-08-12T11:04:23.558Z,99527.84
2022-08-12T11:07:05.236Z,99533.84
2022-08-12T11:08:37.663Z,99528.38
2022-08-12T11:10:41.742Z,99519.66
2022-08-12T11:12:57.987Z,99527.38
2022-08-12T11:15:01.063Z,99519.78
2022-08-12T11:17:43.674Z,99518.94
2022-08-12T11:19:43.817Z,99511.97
2022-08-12T11:21:56.971Z,99518.16
2022-08-12T11:24:01.889Z,99517.19
2022-08-12T11:26:06.806Z,99522.38
2022-08-12T11:28:09.527Z,99517.66
2022-08-12T11:30:31.383Z,99517.72
2022-08-12T11:32:38.472Z,99514.53
2022-08-12T11:34:53.505Z,99505.31
2022-08-12T11:37:04.953Z,99505.09
2022-08-12T11:39:07.116Z,99509.41
2022-08-12T11:41:09.530Z,99503.66
2022-08-12T11:43:18.959Z,99511.19
2022-08-12T11:45:22.143Z,99498.41
2022-08-12T11:47:25.119Z,99499.28
2022-08-12T11:49:31.072Z,99505.06
2022-08-12T11:51:36.479Z,99501.19
2022-08-12T11:53:58.376Z,99502.91
2022-08-12T11:56:06.115Z,99490.25
2022-08-12T11:59:11.307Z,99490.44
2022-08-12T12:02:52.429Z,99487.94
2022-08-12T12:04:54.379Z,99486.44
2022-08-12T12:06:56.770Z,99487.03
2022-08-12T12:09:09.967Z,99486.41
2022-08-12T12:11:11.979Z,99479.31
2022-08-12T12:13:22.959Z,99474.81
2022-08-12T12:15:40.629Z,99478.03
2022-08-12T12:17:43.181Z,99477.38
2022-08-12T12:19:46.259Z,99475.28
2022-08-12T12:21:49.520Z,99472.84
2022-08-12T12:23:51.492Z,99475.69
2022-08-12T12:26:07.340Z,99459.59
2022-08-12T12:28:36.577Z,99474.84
2022-08-12T12:30:37.269Z,99472.66
2022-08-12T12:32:39.988Z,99466.91
2022-08-12T12:35:44.402Z,99464.72
2022-08-12T12:37:04.322Z,99475.69
2022-08-12T12:39:10.570Z,99461.75
2022-08-12T12:41:16.307Z,99471.16
2022-08-12T12:43:29.148Z,99459.38
2022-08-12T12:45:44.325Z,99465.56
2022-08-12T12:48:02.886Z,99462.38
2022-08-12T12:50:06.254Z,99463.88
2022-08-12T12:52:18.543Z,99459.16
2022-08-12T12:54:28.882Z,99454.63
2022-08-12T12:56:34.781Z,99455.09
2022-08-12T12:58:37.308Z,99452.06
2022-08-12T13:00:50.986Z,99452.72
2022-08-12T13:02:57.814Z,99448.84
2022-08-12T13:05:00.305Z,99453.97
2022-08-12T13:07:05.959Z,99443.69
2022-08-12T13:09:13.086Z,99440.25
2022-08-12T13:11:15.207Z,99447.13
2022-08-12T13:14:08.819Z,99440.25
2022-08-12T13:15:43.242Z,99437.47
2022-08-12T13:18:02.833Z,99441.13
2022-08-12T13:20:07.053Z,99444.34
2022-08-12T13:22:20.050Z,99446.72
2022-08-12T13:24:22.419Z,99441.53
2022-08-12T13:26:24.589Z,99446.28
2022-08-12T13:28:28.681Z,99443.91
2022-08-12T13:30:31.055Z,99437.28
2022-08-12T13:32:32.777Z,99434.94
2022-08-12T13:34:35.706Z,99437.72
2022-08-12T13:36:41.004Z,99442.00
2022-08-12T13:38:52.114Z,99435.97
2022-08-12T13:40:58.530Z,99434.06
2022-08-12T13:43:02.059Z,99437.69
2022-08-12T13:45:04.018Z,99427.19
2022-08-12T13:47:18.379Z,99432.13
2022-08-12T13:49:53.420Z,99430.19
2022-08-12T13:51:43.915Z,99425.28
2022-08-12T13:53:57.834Z,99423.75
2022-08-12T13:56:02.288Z,99429.56
2022-08-12T13:58:12.706Z,99420.34
2022-08-12T14:00:15.998Z,99431.28
2022-08-12T14:02:20.031Z,99432.34
2022-08-12T14:04:24.865Z,99429.94
2022-08-12T14:06:30.337Z,99425.22
2022-08-12T14:08:34.580Z,99423.34
2022-08-12T14:10:50.425Z,99416.47
2022-08-12T14:12:54.788Z,99417.13
2022-08-12T14:14:57.952Z,99416.50
2022-08-12T14:17:10.905Z,99418.81
2022-08-12T14:19:22.431Z,99425.66
2022-08-12T14:21:28.886Z,99420.53
2022-08-12T14:24:05.018Z,99417.09
2022-08-12T14:25:58.940Z,99419.69
2022-08-12T14:28:16.405Z,99412.19
2022-08-12T14:30:28.686Z,99408.31
2022-08-12T14:32:35.493Z,99399.53
2022-08-12T14:34:37.788Z,99406.19
2022-08-12T14:36:39.611Z,99402.50
2022-08-12T14:38:46.239Z,99402.06
2022-08-12T14:40:50.787Z,99394.81
2022-08-12T14:42:52.635Z,99387.72
2022-08-12T14:45:01.164Z,99400.78
2022-08-12T14:47:07.515Z,99396.06
2022-08-12T14:50:00.730Z,99395.84
2022-08-12T14:52:44.147Z,99403.78
2022-08-12T14:56:26.230Z,99393.50
2022-08-12T14:59:20.535Z,99386.41
2022-08-12T15:01:45.307Z,99388.50
2022-08-12T15:03:56.925Z,99393.69
2022-08-12T15:06:06.636Z,99387.81
2022-08-12T15:08:27.941Z,99377.94
2022-08-12T15:10:34.086Z,99385.72
2022-08-12T15:12:36.057Z,99381.22
2022-08-12T15:14:45.747Z,99379.38
2022-08-12T15:16:48.651Z,99385.34
2022-08-12T15:18:55.525Z,99383.13
2022-08-12T15:21:05.518Z,99382.06
2022-08-12T15:23:17.648Z,99378.72
2022-08-12T15:25:23.238Z,99379.91
2022-08-12T15:28:03.194Z,99382.22
2022-08-12T15:29:46.799Z,99378.16
2022-08-12T15:32:01.781Z,99382.22
2022-08-12T15:34:06.856Z,99380.50
2022-08-12T15:36:09.928Z,99374.84
2022-08-12T15:38:18.636Z,99372.09
2022-08-12T15:40:29.895Z,99377.25
2022-08-12T15:42:32.511Z,99365.88
2022-08-12T15:44:42.917Z,99371.28
2022-08-12T15:46:45.004Z,99367.63
2022-08-12T15:48:47.758Z,99372.94
2022-08-12T15:50:53.175Z,99371.50
2022-08-12T15:52:58.247Z,99371.63
2022-08-12T15:55:16.727Z,99374.22
2022-08-12T15:57:20.838Z,99365.41
2022-08-12T15:59:51.198Z,99362.22
2022-08-12T16:01:48.842Z,99357.53
2022-08-12T16:04:00.361Z,99359.66
2022-08-12T16:06:11.810Z,99357.13
2022-08-12T16:08:21.228Z,99357.66
2022-08-12T16:10:31.009Z,99351.69
2022-08-12T16:12:37.275Z,99356.22
2022-08-12T16:14:40.128Z,99348.53
2022-08-12T16:16:42.474Z,99360.09
2022-08-12T16:18:44.885Z,99363.94
2022-08-12T16:20:47.350Z,99355.00
2022-08-12T16:22:52.150Z,99355.63
2022-08-12T16:24:56.189Z,99349.84
2022-08-12T16:26:58.336Z,99352.88
2022-08-12T16:29:15.259Z,99347.31
2022-08-12T16:31:23.291Z,99346.47
2022-08-12T16:33:35.550Z,99352.88
2022-08-12T16:35:40.465Z,99341.50
2022-08-12T16:38:25.784Z,99342.34
2022-08-12T16:40:08.443Z,99341.69
2022-08-12T16:42:10.384Z,99341.69
2022-08-12T16:44:12.515Z,99331.84
2022-08-12T16:46:32.384Z,99338.31
2022-08-12T16:48:38.833Z,99334.88
2022-08-12T16:50:41.300Z,99338.13
2022-08-12T16:52:50.029Z,99340.25
2022-08-12T16:54:52.992Z,99336.19
2022-08-12T16:56:57.813Z,99337.47
2022-08-12T16:59:00.152Z,99341.94
2022-08-12T17:01:02.640Z,99340.44
2022-08-12T17:03:05.124Z,99337.66
2022-08-12T17:05:12.637Z,99338.75
2022-08-12T17:07:19.645Z,99338.94
2022-08-12T17:09:22.331Z,99340.19
2022-08-12T17:11:24.791Z,99343.22
2022-08-12T17:13:30.146Z,99350.03
2022-08-12T17:15:57.113Z,99342.13
2022-08-12T17:18:42.492Z,99344.00
2022-08-12T17:20:35.267Z,99345.44
2022-08-12T17:22:42.448Z,99347.97
2022-08-12T17:24:54.585Z,99338.09
2022-08-12T17:26:59.547Z,99338.72
2022-08-12T17:29:03.802Z,99344.03
2022-08-12T17:31:07.102Z,99338.44
2022-08-12T17:33:17.154Z,99342.69
2022-08-12T17:35:37.373Z,99331.91
2022-08-12T17:37:45.104Z,99335.53
2022-08-12T17:40:13.562Z,99337.19
2022-08-12T17:42:32.955Z,99331.75
2022-08-12T17:44:35.190Z,99347.25
2022-08-12T17:46:37.526Z,99349.75
2022-08-12T17:48:55.656Z,99346.06
2022-08-12T17:51:01.227Z,99343.22
2022-08-12T17:53:04.656Z,99335.03
2022-08-12T17:55:31.316Z,99336.03
2022-08-12T17:57:31.624Z,99338.03
2022-08-12T17:59:48.043Z,99333.03
2022-08-12T18:01:51.432Z,99345.13
2022-08-12T18:03:58.148Z,99333.25
2022-08-12T18:06:15.940Z,99341.69
2022-08-12T18:08:18.909Z,99338.84
2022-08-12T18:10:44.091Z,99339.63
2022-08-12T18:12:55.689Z,99346.28
2022-08-12T18:15:09.135Z,99349.84
2022-08-12T18:17:12.209Z,99352.72
2022-08-12T18:19:14.220Z,99347.09
2022-08-12T18:21:16.573Z,99350.81
2022-08-12T18:23:24.234Z,99358.38
2022-08-12T18:26:15.153Z,99362.28
2022-08-12T18:28:15.177Z,99361.00
2022-08-12T18:30:29.054Z,99356.44
2022-08-12T18:32:44.284Z,99354.38
2022-08-12T18:34:57.819Z,99357.25
2022-08-12T18:37:41.170Z,99367.56
2022-08-12T18:39:56.159Z,99368.19
2022-08-12T18:41:59.464Z,99374.78
2022-08-12T18:44:10.187Z,99379.72
2022-08-12T18:46:16.173Z,99370.56
2022-08-12T18:48:23.651Z,99376.81
2022-08-12T18:50:25.462Z,99369.09
2022-08-12T18:52:48.468Z,99382.09
2022-08-12T18:54:54.872Z,99376.47
2022-08-12T18:57:05.043Z,99384.78
2022-08-12T18:59:07.182Z,99386.59
2022-08-12T19:02:19.916Z,99388.13
2022-08-12T19:03:39.938Z,99383.31
2022-08-12T19:05:53.877Z,99388.53
2022-08-12T19:08:01.209Z,99385.13
2022-08-12T19:10:04.351Z,99385.00
2022-08-12T19:12:30.383Z,99385.69
2022-08-12T19:14:40.271Z,99382.28
2022-08-12T19:16:43.882Z,99379.72
2022-08-12T19:18:49.327Z,99377.84
2022-08-12T19:20:51.104Z,99382.16
2022-08-12T19:22:58.064Z,99388.38
2022-08-12T19:25:23.714Z,99390.09
2022-08-12T19:27:50.793Z,99386.16
2022-08-12T19:30:06.896Z,99384.97
2022-08-12T19:32:13.729Z,99389.31
2022-08-12T19:36:40.536Z,99382.41
2022-08-12T19:38:46.630Z,99373.44
2022-08-12T19:41:03.575Z,99388.81
2022-08-12T19:43:20.878Z,99388.75
2022-08-12T19:45:23.253Z,99377.22
2022-08-12T19:47:46.711Z,99383.94
2022-08-12T19:49:53.221Z,99380.66
2022-08-12T19:51:57.150Z,99378.44
2022-08-12T19:54:00.395Z,99373.59
2022-08-12T19:56:02.917Z,99365.84
2022-08-12T19:58:07.854Z,99370.81
2022-08-12T20:00:20.591Z,99364.81
2022-08-12T20:02:32.751Z,99375.47
2022-08-12T20:04:37.728Z,99373.22
2022-08-12T20:06:51.373Z,99374.44
2022-08-12T20:08:56.711Z,99375.47
2022-08-12T20:12:14.442Z,99377.69
2022-08-12T20:13:27.198Z,99370.94
2022-08-12T20:15:44.474Z,99370.41
2022-08-12T20:17:51.095Z,99377.78
2022-08-12T20:20:17.330Z,99375.22
2022-08-12T20:22:24.477Z,99377.28
2022-08-12T20:24:37.543Z,99366.91
2022-08-12T20:26:43.865Z,99362.59
2022-08-12T20:28:48.134Z,99364.81
2022-08-12T20:30:53.601Z,99357.25
2022-08-12T20:33:02.353Z,99358.44
2022-08-12T20:35:12.195Z,99355.81
2022-08-12T20:37:22.438Z,99362.53
2022-08-12T20:39:56.634Z,99360.78
2022-08-12T20:42:04.111Z,99365.63
2022-08-12T20:44:16.811Z,99367.66
2022-08-12T20:46:20.003Z,99378.84
2022-08-12T20:48:25.256Z,99366.44
2022-08-12T20:50:28.000Z,99381.00
2022-08-12T20:52:35.121Z,99375.66
2022-08-12T20:54:37.856Z,99381.50
2022-08-12T20:56:39.907Z,99386.06
2022-08-12T20:58:47.067Z,99382.91
2022-08-12T21:00:48.899Z,99383.63
2022-08-12T21:02:52.413Z,99377.41
2022-08-12T21:05:20.034Z,99388.94
2022-08-12T21:07:24.334Z,99382.00
2022-08-12T21:09:40.872Z,99381.41
2022-08-12T21:11:43.263Z,99380.88
2022-08-12T21:13:46.328Z,99376.06
2022-08-12T21:15:55.043Z,99381.59
2022-08-12T21:18:15.541Z,99372.22
2022-08-12T21:20:26.094Z,99373.41
2022-08-12T21:22:33.201Z,99361.28
2022-08-12T21:24:35.341Z,99368.16
2022-08-12T21:26:40.233Z,99380.63
2022-08-12T21:28:42.334Z,99375.94
2022-08-12T21:32:36.168Z,99383.97
2022-08-12T21:33:22.592Z,99386.16
2022-08-12T21:35:25.275Z,99383.91
2022-08-12T21:37:28.551Z,99378.88
2022-08-12T21:39:36.503Z,99382.94
2022-08-12T21:41:40.600Z,99376.34
2022-08-12T21:43:48.850Z,99381.31
2022-08-12T21:46:00.916Z,99375.81
2022-08-12T21:48:08.267Z,99381.78
2022-08-12T21:50:10.450Z,99373.00
2022-08-12T21:52:15.320Z,99377.81
2022-08-12T21:54:22.958Z,99378.75
2022-08-12T21:56:34.735Z,99377.72
2022-08-12T21:58:40.407Z,99375.44
2022-08-12T22:00:42.936Z,99377.25
2022-08-12T22:03:05.247Z,99366.56
2022-08-12T22:05:25.972Z,99367.16
2022-08-12T22:07:28.806Z,99362.59
2022-08-12T22:09:48.021Z,99359.13
2022-08-12T22:12:21.519Z,99357.56
2022-08-12T22:14:23.680Z,99358.59
2022-08-12T22:16:30.869Z,99367.13
2022-08-12T22:18:39.327Z,99354.88
2022-08-12T22:20:41.173Z,99360.34
2022-08-12T22:22:55.910Z,99361.38
2022-08-12T22:25:00.194Z,99361.38
2022-08-12T22:27:08.251Z,99359.09
2022-08-12T22:30:02.421Z,99356.78
2022-08-12T22:32:05.618Z,99361.56
2022-08-12T22:34:18.401Z,99352.47
2022-08-12T22:36:28.789Z,99352.75
2022-08-12T22:38:31.563Z,99350.13
2022-08-12T22:40:33.522Z,99345.81
2022-08-12T22:42:54.732Z,99346.72
2022-08-12T22:45:16.235Z,99353.28
2022-08-12T22:47:53.288Z,99338.75
2022-08-12T22:49:59.606Z,99342.34
2022-08-12T22:52:06.914Z,99346.38
2022-08-12T22:54:36.852Z,99349.13
2022-08-12T22:56:32.107Z,99346.09
2022-08-12T22:58:40.569Z,99340.47
2022-08-12T23:00:48.399Z,99346.97
2022-08-12T23:02:58.336Z,99341.22
2022-08-12T23:05:03.927Z,99344.38
2022-08-12T23:07:10.999Z,99343.66
2022-08-12T23:09:16.171Z,99341.81
2022-08-12T23:11:23.746Z,99336.47
2022-08-12T23:13:49.102Z,99324.78
2022-08-12T23:16:01.167Z,99330.28
2022-08-12T23:18:02.875Z,99334.47
2022-08-12T23:20:05.386Z,99331.00
2022-08-12T23:23:05.844Z,99326.81
2022-08-12T23:24:31.758Z,99333.03
2022-08-12T23:26:55.632Z,99335.19
2022-08-12T23:29:30.076Z,99332.19
2022-08-12T23:32:03.264Z,99327.25
2022-08-12T23:34:02.614Z,99332.19
2022-08-12T23:36:05.828Z,99324.09
2022-08-12T23:38:09.150Z,99323.53
2022-08-12T23:40:17.772Z,99321.09
2022-08-12T23:42:19.890Z,99309.84
2022-08-12T23:44:25.448Z,99310.13
2022-08-12T23:46:33.429Z,99310.56
2022-08-12T23:48:37.760Z,99304.53
2022-08-12T23:50:39.815Z,99304.22
2022-08-12T23:52:46.588Z,99302.63
2022-08-12T23:54:58.161Z,99302.06
2022-08-12T23:57:03.925Z,99299.63
2022-08-12T23:59:14.089Z,99301.66
